Salt Lake City, Utah
Traffic Map
Current Weather Conditions
Salt Lake City, Utah
Broken Clouds
Broken Clouds
35°
Feels Like: 35°
Wind Chill: 35° Ceiling: 4900
Heat Index: 35° Visibility: 10mi
Dew Point: 31° Wind: 0mph
Humidity: 85% Direction: ° ()
Pressure: 29.93in Gusts: 0mph
Raw Report DataKSLC 010653Z 00000KT 10SM FEW030 BKN049 BKN075 02/M01 A2993 RMK AO2 SLP135 T00171006 400721028
Traffic Incident Summary
Active as of:
Severity:
Category:
InformationThere was an issue retrieving the traffic information for this location. Please try a different location or try again shortly.
Advertisements
Track Severe Weather on mobile